createdAt,value
2017-11-28T00:01:11.578Z,6.10
2017-11-28T00:03:39.242Z,6.10
2017-11-28T00:06:07.017Z,6.10
2017-11-28T00:08:34.684Z,6.10
2017-11-28T00:11:02.388Z,6.10
2017-11-28T00:13:30.139Z,6.20
2017-11-28T00:15:58.561Z,6.10
2017-11-28T00:18:26.326Z,6.10
2017-11-28T00:20:54.037Z,6.20
2017-11-28T00:23:22.464Z,6.10
2017-11-28T00:25:50.237Z,6.10
2017-11-28T00:28:17.951Z,6.10
2017-11-28T00:30:45.713Z,6.10
2017-11-28T00:33:13.420Z,6.10
2017-11-28T00:35:41.192Z,6.10
2017-11-28T00:38:08.920Z,6.10
2017-11-28T00:40:36.682Z,6.10
2017-11-28T00:43:05.171Z,6.00
2017-11-28T00:45:32.936Z,6.00
2017-11-28T00:48:01.472Z,6.00
2017-11-28T00:50:29.189Z,6.00
2017-11-28T00:52:56.921Z,6.00
2017-11-28T00:55:24.627Z,5.90
2017-11-28T00:57:53.114Z,5.90
2017-11-28T01:00:21.521Z,5.90
2017-11-28T01:02:49.289Z,5.80
2017-11-28T01:05:17.003Z,5.80
2017-11-28T01:07:45.487Z,5.80
2017-11-28T01:10:13.977Z,5.80
2017-11-28T01:12:42.452Z,5.80
2017-11-28T01:15:10.984Z,5.70
2017-11-28T01:17:38.668Z,5.70
2017-11-28T01:20:06.473Z,5.70
2017-11-28T01:22:34.189Z,5.70
2017-11-28T01:25:01.881Z,5.70
2017-11-28T01:27:29.644Z,5.70
2017-11-28T01:29:57.350Z,5.70
2017-11-28T01:32:25.121Z,5.70
2017-11-28T01:34:52.871Z,5.70
2017-11-28T01:37:20.638Z,5.60
2017-11-28T01:39:48.423Z,5.60
2017-11-28T01:42:16.130Z,5.60
2017-11-28T01:44:43.842Z,5.70
2017-11-28T01:47:11.609Z,5.60
2017-11-28T01:49:40.084Z,5.60
2017-11-28T01:52:07.861Z,5.60
2017-11-28T01:54:36.332Z,5.60
2017-11-28T01:57:04.800Z,5.50
2017-11-28T01:59:32.565Z,5.50
2017-11-28T02:02:00.356Z,5.50
2017-11-28T02:04:28.065Z,5.50
2017-11-28T02:06:55.876Z,5.50
2017-11-28T02:09:23.580Z,5.50
2017-11-28T02:11:51.285Z,5.50
2017-11-28T02:14:19.860Z,5.50
2017-11-28T02:16:48.372Z,5.50
2017-11-28T02:19:16.096Z,5.50
2017-11-28T02:21:44.712Z,5.50
2017-11-28T02:24:12.427Z,5.50
2017-11-28T02:26:40.128Z,5.50
2017-11-28T02:29:08.236Z,5.50
2017-11-28T02:31:35.942Z,5.50
2017-11-28T02:34:03.657Z,5.50
2017-11-28T02:36:31.478Z,5.50
2017-11-28T02:38:59.182Z,5.40
2017-11-28T02:41:26.887Z,5.50
2017-11-28T02:44:10.197Z,5.50
2017-11-28T02:46:38.672Z,5.50
2017-11-28T02:49:26.873Z,5.40
2017-11-28T02:51:55.426Z,5.40
2017-11-28T02:54:23.132Z,5.40
2017-11-28T02:56:58.421Z,5.40
2017-11-28T02:59:27.871Z,5.40
2017-11-28T03:01:57.569Z,5.40
2017-11-28T03:04:25.276Z,5.50
2017-11-28T03:06:53.741Z,5.40
2017-11-28T03:09:30.951Z,5.40
2017-11-28T03:12:01.433Z,5.40
2017-11-28T03:14:31.020Z,5.40
2017-11-28T03:16:58.723Z,5.40
2017-11-28T03:19:38.165Z,5.50
2017-11-28T03:22:14.696Z,5.50
2017-11-28T03:24:49.217Z,5.50
2017-11-28T03:27:16.920Z,5.50
2017-11-28T03:29:46.243Z,5.50
2017-11-28T03:32:14.079Z,5.50
2017-11-28T03:34:41.784Z,5.50
2017-11-28T03:37:09.484Z,5.40
2017-11-28T03:39:38.156Z,5.40
2017-11-28T03:42:06.664Z,5.40
2017-11-28T03:45:00.077Z,5.40
2017-11-28T03:47:27.811Z,5.40
2017-11-28T03:49:55.548Z,5.40
2017-11-28T03:52:23.380Z,5.40
2017-11-28T03:54:51.857Z,5.40
2017-11-28T03:57:20.333Z,5.40
2017-11-28T03:59:48.272Z,5.40
2017-11-28T04:02:15.965Z,5.40
2017-11-28T04:04:44.437Z,5.30
2017-11-28T04:07:13.041Z,5.40
2017-11-28T04:09:40.761Z,5.40
2017-11-28T04:12:08.465Z,5.30
2017-11-28T04:14:36.481Z,5.30
2017-11-28T04:17:04.187Z,5.30
2017-11-28T04:19:31.900Z,5.30
2017-11-28T04:21:59.868Z,5.20
2017-11-28T04:24:27.575Z,5.20
2017-11-28T04:26:55.291Z,5.20
2017-11-28T04:29:23.113Z,5.20
2017-11-28T04:31:50.932Z,5.20
2017-11-28T04:34:18.635Z,5.20
2017-11-28T04:36:46.445Z,5.30
2017-11-28T04:39:14.148Z,5.30
2017-11-28T04:41:41.849Z,5.30
2017-11-28T04:44:09.633Z,5.20
2017-11-28T04:46:37.460Z,5.20
2017-11-28T04:49:05.163Z,5.20
2017-11-28T04:51:36.720Z,5.20
2017-11-28T04:54:05.187Z,5.20
2017-11-28T04:56:32.888Z,5.20
2017-11-28T04:59:00.671Z,5.20
2017-11-28T05:01:28.485Z,5.20
2017-11-28T05:03:57.023Z,5.20
2017-11-28T05:06:24.722Z,5.20
2017-11-28T05:08:53.312Z,5.20
2017-11-28T05:11:21.788Z,5.20
2017-11-28T05:13:50.255Z,5.20
2017-11-28T05:16:18.068Z,5.20
2017-11-28T05:18:45.777Z,5.20
2017-11-28T05:21:13.493Z,5.20
2017-11-28T05:23:41.481Z,5.20
2017-11-28T05:26:09.180Z,5.20
2017-11-28T05:28:37.643Z,5.20
2017-11-28T05:31:05.583Z,5.20
2017-11-28T05:33:33.292Z,5.20
2017-11-28T05:36:01.081Z,5.20
2017-11-28T05:38:28.934Z,5.20
2017-11-28T05:40:56.712Z,5.20
2017-11-28T05:43:24.416Z,5.20
2017-11-28T05:45:52.886Z,5.20
2017-11-28T05:48:20.640Z,5.20
2017-11-28T05:50:48.348Z,5.10
2017-11-28T05:53:19.729Z,5.10
2017-11-28T05:55:47.444Z,5.10
2017-11-28T05:58:15.160Z,5.10
2017-11-28T06:00:42.976Z,5.10
2017-11-28T06:03:10.685Z,5.20
2017-11-28T06:05:38.392Z,5.20
2017-11-28T06:08:10.868Z,5.20
2017-11-28T06:10:38.573Z,5.20
2017-11-28T06:13:06.276Z,5.20
2017-11-28T06:15:34.864Z,5.20
2017-11-28T06:18:02.583Z,5.20
2017-11-28T06:20:30.287Z,5.20
2017-11-28T06:22:58.304Z,5.20
2017-11-28T06:25:26.016Z,5.20
2017-11-28T06:27:53.728Z,5.20
2017-11-28T06:30:21.544Z,5.10
2017-11-28T06:32:49.544Z,5.10
2017-11-28T06:35:17.264Z,5.20
2017-11-28T06:37:45.294Z,5.20
2017-11-28T06:40:13.005Z,5.20
2017-11-28T06:42:40.716Z,5.20
2017-11-28T06:45:11.080Z,5.20
2017-11-28T06:47:38.789Z,5.20
2017-11-28T06:50:06.757Z,5.20
2017-11-28T06:52:34.477Z,5.20
2017-11-28T06:55:02.197Z,5.20
2017-11-28T06:57:30.757Z,5.20
2017-11-28T07:00:02.320Z,5.20
2017-11-28T07:02:30.095Z,5.20
2017-11-28T07:04:58.573Z,5.10
2017-11-28T07:07:27.131Z,5.10
2017-11-28T07:09:54.853Z,5.10
2017-11-28T07:12:23.277Z,5.10
2017-11-28T07:14:51.034Z,5.00
2017-11-28T07:17:19.969Z,5.10
2017-11-28T07:19:47.833Z,5.10
2017-11-28T07:22:15.545Z,5.10
2017-11-28T07:24:43.264Z,5.00
2017-11-28T07:27:11.094Z,5.10
2017-11-28T07:29:39.584Z,5.20
2017-11-28T07:32:07.304Z,5.20
2017-11-28T07:34:35.220Z,5.10
2017-11-28T07:37:02.929Z,5.10
2017-11-28T07:39:30.662Z,5.20
2017-11-28T07:41:58.476Z,5.20
2017-11-28T07:44:26.986Z,5.20
2017-11-28T07:46:54.738Z,5.20
2017-11-28T07:49:22.760Z,5.20
2017-11-28T07:51:50.519Z,5.30
2017-11-28T07:54:18.235Z,5.30
2017-11-28T07:56:46.163Z,5.20
2017-11-28T07:59:14.662Z,5.30
2017-11-28T08:01:43.149Z,5.30
2017-11-28T08:04:10.993Z,5.30
2017-11-28T08:06:39.493Z,5.30
2017-11-28T08:09:07.208Z,5.30
2017-11-28T08:11:35.184Z,5.30
2017-11-28T08:14:02.892Z,5.30
2017-11-28T08:16:30.615Z,5.30
2017-11-28T08:18:59.200Z,5.30
2017-11-28T08:21:27.726Z,5.30
2017-11-28T08:23:55.602Z,5.30
2017-11-28T08:26:23.352Z,5.30
2017-11-28T08:28:51.139Z,5.30
2017-11-28T08:31:19.038Z,5.40
2017-11-28T08:33:47.605Z,5.30
2017-11-28T08:36:16.182Z,5.40
2017-11-28T08:38:44.077Z,5.40
2017-11-28T08:41:11.898Z,5.40
2017-11-28T08:43:39.751Z,5.40
2017-11-28T08:46:07.624Z,5.40
2017-11-28T08:48:35.393Z,5.50
2017-11-28T08:51:03.181Z,5.50
2017-11-28T08:53:31.074Z,5.60
2017-11-28T08:55:58.804Z,5.60
2017-11-28T08:58:27.284Z,5.60
2017-11-28T09:00:56.060Z,5.60
2017-11-28T09:03:24.569Z,5.60
2017-11-28T09:05:52.294Z,5.60
2017-11-28T09:08:21.180Z,5.70
2017-11-28T09:10:48.905Z,5.70
2017-11-28T09:13:16.621Z,5.60
2017-11-28T09:15:45.365Z,5.70
2017-11-28T09:18:13.125Z,5.70
2017-11-28T09:20:40.860Z,5.70
2017-11-28T09:23:08.676Z,5.70
2017-11-28T09:25:37.165Z,5.70
2017-11-28T09:28:05.645Z,5.70
2017-11-28T09:30:34.256Z,5.70
2017-11-28T09:33:01.970Z,5.70
2017-11-28T09:35:29.684Z,5.80
2017-11-28T09:37:57.505Z,5.80
2017-11-28T09:40:26.002Z,5.80
2017-11-28T09:42:53.704Z,5.80
2017-11-28T09:45:21.490Z,5.80
2017-11-28T09:47:49.195Z,5.80
2017-11-28T09:50:17.018Z,5.90
2017-11-28T09:52:45.510Z,6.00
2017-11-28T09:55:14.099Z,6.00
2017-11-28T09:57:41.833Z,6.00
2017-11-28T10:00:09.547Z,6.00
2017-11-28T10:02:37.360Z,6.10
2017-11-28T10:05:05.085Z,6.10
2017-11-28T10:07:32.821Z,6.10
2017-11-28T10:10:00.825Z,6.20
2017-11-28T10:12:28.541Z,6.20
2017-11-28T10:14:56.257Z,6.20
2017-11-28T10:17:24.219Z,6.20
2017-11-28T10:19:51.940Z,6.20
2017-11-28T10:22:19.645Z,6.30
2017-11-28T10:24:47.438Z,6.50
2017-11-28T10:27:15.147Z,6.80
2017-11-28T10:29:44.818Z,7.00
2017-11-28T10:32:12.574Z,7.00
2017-11-28T10:34:41.036Z,7.10
2017-11-28T10:37:09.815Z,7.00
2017-11-28T10:39:38.279Z,6.80
2017-11-28T10:42:05.988Z,6.80
2017-11-28T10:44:33.844Z,6.70
2017-11-28T10:47:01.643Z,6.80
2017-11-28T10:49:29.401Z,7.00
2017-11-28T10:51:57.316Z,7.00
2017-11-28T10:54:25.806Z,7.00
2017-11-28T10:56:53.536Z,7.00
2017-11-28T10:59:22.129Z,6.80
2017-11-28T11:01:50.621Z,6.80
2017-11-28T11:04:18.337Z,6.80
2017-11-28T11:06:46.136Z,6.80
2017-11-28T11:09:14.855Z,6.80
2017-11-28T11:11:42.580Z,6.80
2017-11-28T11:14:11.060Z,7.40
2017-11-28T11:16:39.660Z,7.70
2017-11-28T11:19:07.356Z,7.70
2017-11-28T11:21:35.074Z,7.80
2017-11-28T11:24:03.002Z,7.70
2017-11-28T11:26:30.741Z,7.60
2017-11-28T11:28:58.476Z,7.60
2017-11-28T11:31:26.314Z,7.80
2017-11-28T11:33:54.817Z,8.10
2017-11-28T11:36:22.530Z,8.00
2017-11-28T11:38:51.131Z,8.20
2017-11-28T11:41:19.624Z,8.30
2017-11-28T11:43:47.337Z,8.30
2017-11-28T11:46:15.455Z,8.30
2017-11-28T11:48:43.167Z,8.30
2017-11-28T11:51:10.884Z,8.40
2017-11-28T11:53:38.708Z,8.40
2017-11-28T11:56:06.424Z,8.30
2017-11-28T11:58:34.156Z,8.00
2017-11-28T12:01:02.185Z,7.80
2017-11-28T12:03:29.913Z,7.60
2017-11-28T12:05:57.612Z,7.50
2017-11-28T12:08:25.418Z,7.40
2017-11-28T12:10:53.124Z,7.30
2017-11-28T12:13:20.946Z,7.30
2017-11-28T12:15:48.657Z,7.20
2017-11-28T12:18:16.380Z,7.20
2017-11-28T12:20:44.189Z,7.10
2017-11-28T12:23:12.668Z,7.10
2017-11-28T12:25:41.149Z,7.10
2017-11-28T12:28:09.737Z,7.00
2017-11-28T12:30:38.217Z,6.90
2017-11-28T12:33:05.932Z,6.90
2017-11-28T12:35:33.756Z,7.00
2017-11-28T12:38:01.461Z,7.00
2017-11-28T12:40:29.154Z,7.00
2017-11-28T12:42:57.735Z,7.00
2017-11-28T12:45:26.216Z,6.90
2017-11-28T12:47:54.699Z,6.90
2017-11-28T12:50:23.279Z,6.90
2017-11-28T12:52:51.737Z,6.90
2017-11-28T12:55:19.443Z,6.90
2017-11-28T12:57:47.505Z,7.00
2017-11-28T13:00:15.223Z,7.10
2017-11-28T13:02:42.929Z,7.10
2017-11-28T13:05:10.793Z,7.00
2017-11-28T13:07:38.501Z,7.10
2017-11-28T13:10:06.226Z,7.00
2017-11-28T13:12:34.045Z,7.00
2017-11-28T13:15:02.538Z,6.80
2017-11-28T13:17:30.364Z,6.80
2017-11-28T13:19:58.076Z,6.80
2017-11-28T13:22:25.792Z,6.80
2017-11-28T13:24:53.764Z,6.80
2017-11-28T13:27:21.483Z,6.80
2017-11-28T13:29:49.188Z,6.80
2017-11-28T13:32:17.135Z,6.80
2017-11-28T13:34:44.824Z,6.80
2017-11-28T13:37:13.304Z,6.70
2017-11-28T13:39:41.945Z,6.70
2017-11-28T13:42:09.684Z,6.80
2017-11-28T13:44:37.384Z,6.70
2017-11-28T13:47:05.184Z,6.90
2017-11-28T13:49:32.949Z,6.90
2017-11-28T13:52:00.716Z,6.90
2017-11-28T13:54:28.546Z,6.80
2017-11-28T13:56:57.028Z,6.70
2017-11-28T13:59:25.505Z,6.70
2017-11-28T14:01:54.048Z,6.70
2017-11-28T14:04:22.541Z,6.60
2017-11-28T14:06:50.249Z,6.60
2017-11-28T14:09:18.005Z,6.60
2017-11-28T14:11:45.673Z,6.70
2017-11-28T14:14:13.401Z,6.70
2017-11-28T14:16:42.089Z,6.60
2017-11-28T14:19:10.632Z,6.50
2017-11-28T14:24:59.859Z,6.50
2017-11-28T14:27:32.049Z,6.50
2017-11-28T14:30:00.824Z,6.50
2017-11-28T14:35:40.783Z,6.40
2017-11-28T14:38:08.543Z,6.30
2017-11-28T14:40:47.317Z,6.20
2017-11-28T14:43:18.049Z,6.10
2017-11-28T14:45:55.923Z,6.10
2017-11-28T14:48:23.687Z,6.00
2017-11-28T14:50:57.125Z,6.00
2017-11-28T14:53:28.463Z,6.00
2017-11-28T14:55:57.913Z,6.30
2017-11-28T14:58:31.555Z,6.30
2017-11-28T15:01:03.227Z,6.20
2017-11-28T15:03:37.537Z,6.20
2017-11-28T15:06:11.183Z,6.20
2017-11-28T15:08:45.225Z,6.10
2017-11-28T15:11:18.796Z,6.10
2017-11-28T15:13:52.105Z,6.10
2017-11-28T15:16:25.618Z,6.10
2017-11-28T15:22:04.507Z,5.70
2017-11-28T15:24:48.875Z,5.70
2017-11-28T15:27:16.754Z,5.60
2017-11-28T15:29:45.184Z,5.70
2017-11-28T15:32:12.955Z,5.70
2017-11-28T15:34:40.781Z,5.70
2017-11-28T15:37:08.511Z,5.70
2017-11-28T15:39:36.232Z,5.60
2017-11-28T15:42:04.060Z,5.60
2017-11-28T15:44:31.826Z,5.50
2017-11-28T15:46:59.536Z,5.40
2017-11-28T15:49:27.380Z,5.30
2017-11-28T15:51:55.112Z,4.80
2017-11-28T15:54:22.812Z,4.70
2017-11-28T15:56:50.640Z,4.40
2017-11-28T15:59:18.352Z,4.20
2017-11-28T16:01:46.064Z,4.30
2017-11-28T16:04:14.645Z,4.50
2017-11-28T16:06:43.233Z,4.60
2017-11-28T16:09:11.730Z,4.40
2017-11-28T16:11:39.432Z,4.40
2017-11-28T16:14:07.256Z,4.10
2017-11-28T16:16:34.965Z,4.00
2017-11-28T16:19:02.677Z,4.10
2017-11-28T16:21:30.504Z,4.10
2017-11-28T16:23:58.236Z,4.00
2017-11-28T16:26:25.916Z,3.80
2017-11-28T16:28:53.696Z,3.80
2017-11-28T16:31:22.174Z,3.50
2017-11-28T16:33:50.867Z,3.20
2017-11-28T16:36:19.369Z,3.10
2017-11-28T16:38:47.104Z,3.00
2017-11-28T16:41:15.705Z,3.80
2017-11-28T16:43:43.425Z,3.80
2017-11-28T16:46:11.134Z,3.90
2017-11-28T16:48:38.963Z,4.00
2017-11-28T16:51:07.464Z,3.70
2017-11-28T16:53:35.218Z,3.70
2017-11-28T16:56:03.069Z,3.50
2017-11-28T16:58:31.548Z,3.20
2017-11-28T17:01:00.028Z,3.40
2017-11-28T17:03:29.464Z,3.30
2017-11-28T17:05:57.186Z,3.30
2017-11-28T17:08:25.805Z,3.10
2017-11-28T17:10:53.548Z,3.00
2017-11-28T17:13:21.284Z,3.30
2017-11-28T17:15:49.892Z,3.60
2017-11-28T17:18:17.849Z,3.60
2017-11-28T17:20:46.371Z,3.50
2017-11-28T17:23:14.120Z,3.40
2017-11-28T17:25:42.225Z,3.30
2017-11-28T17:28:09.929Z,3.20
2017-11-28T17:30:37.673Z,3.20
2017-11-28T17:33:06.279Z,2.60
2017-11-28T17:35:33.957Z,2.60
2017-11-28T17:38:01.665Z,2.40
2017-11-28T17:40:29.501Z,2.20
2017-11-28T17:42:57.233Z,2.50
2017-11-28T17:45:24.953Z,2.60
2017-11-28T17:47:53.539Z,2.70
2017-11-28T17:50:22.064Z,2.80
2017-11-28T17:52:49.863Z,2.80
2017-11-28T17:55:17.927Z,2.70
2017-11-28T17:57:45.650Z,2.70
2017-11-28T18:00:13.368Z,2.70
2017-11-28T18:02:41.932Z,2.30
2017-11-28T18:05:09.752Z,2.30
2017-11-28T18:07:37.441Z,2.30
2017-11-28T18:10:05.128Z,2.10
2017-11-28T18:12:33.724Z,2.10
2017-11-28T18:15:01.448Z,2.10
2017-11-28T18:17:29.164Z,2.10
2017-11-28T18:19:57.174Z,2.40
2017-11-28T18:22:24.872Z,2.40
2017-11-28T18:24:53.333Z,2.30
2017-11-28T18:27:21.955Z,2.30
2017-11-28T18:29:49.748Z,2.20
2017-11-28T18:32:17.496Z,2.10
2017-11-28T18:34:45.341Z,2.00
2017-11-28T18:37:13.098Z,1.80
2017-11-28T18:39:40.855Z,1.60
2017-11-28T18:42:08.672Z,1.70
2017-11-28T18:44:36.429Z,2.10
2017-11-28T18:47:04.143Z,2.10
2017-11-28T18:49:32.042Z,2.00
2017-11-28T18:51:59.753Z,2.00
2017-11-28T18:54:28.243Z,2.00
2017-11-28T18:56:56.592Z,2.00
2017-11-28T18:59:25.068Z,1.70
2017-11-28T19:01:53.545Z,1.60
2017-11-28T19:04:22.105Z,1.60
2017-11-28T19:06:50.473Z,1.50
2017-11-28T19:09:18.300Z,1.70
2017-11-28T19:11:46.012Z,1.90
2017-11-28T19:14:13.737Z,2.20
2017-11-28T19:16:41.565Z,2.50
2017-11-28T19:19:09.291Z,2.70
2017-11-28T19:21:37.813Z,2.60
2017-11-28T19:24:05.658Z,2.60
2017-11-28T19:26:34.138Z,2.60
2017-11-28T19:29:02.615Z,2.70
2017-11-28T19:31:31.429Z,2.60
2017-11-28T19:33:59.123Z,2.60
2017-11-28T19:36:26.823Z,2.60
2017-11-28T19:38:55.396Z,2.40
2017-11-28T19:41:23.109Z,2.40
2017-11-28T19:43:50.819Z,2.40
2017-11-28T19:46:19.428Z,2.60
2017-11-28T19:48:47.154Z,2.60
2017-11-28T19:51:14.881Z,2.50
2017-11-28T19:53:42.756Z,2.50
2017-11-28T19:56:12.929Z,2.50
2017-11-28T19:58:40.649Z,2.40
2017-11-28T20:01:08.589Z,2.50
2017-11-28T20:03:36.346Z,2.50
2017-11-28T20:06:05.738Z,2.50
2017-11-28T20:08:33.593Z,2.60
2017-11-28T20:11:01.326Z,2.60
2017-11-28T20:13:29.834Z,2.50
2017-11-28T20:15:58.500Z,2.50
2017-11-28T20:18:26.205Z,2.30
2017-11-28T20:20:53.974Z,2.30
2017-11-28T20:23:21.801Z,2.30
2017-11-28T20:25:49.508Z,2.40
2017-11-28T20:28:17.202Z,2.40
2017-11-28T20:30:45.046Z,2.50
2017-11-28T20:33:13.858Z,2.60
2017-11-28T20:35:41.605Z,2.60
2017-11-28T20:38:10.213Z,2.70
2017-11-28T20:40:37.929Z,2.70
2017-11-28T20:43:05.695Z,2.60
2017-11-28T20:45:33.644Z,2.50
2017-11-28T20:48:01.361Z,2.30
2017-11-28T20:50:29.085Z,2.30
2017-11-28T20:52:57.838Z,2.30
2017-11-28T20:55:25.527Z,2.30
2017-11-28T20:57:54.008Z,2.30
2017-11-28T21:00:22.772Z,2.50
2017-11-28T21:02:50.513Z,2.50
2017-11-28T21:05:18.216Z,2.30
2017-11-28T21:07:46.783Z,2.10
2017-11-28T21:10:14.500Z,2.10
2017-11-28T21:12:42.333Z,2.10
2017-11-28T21:15:10.807Z,2.00
2017-11-28T21:17:39.290Z,2.00
2017-11-28T21:20:08.372Z,1.90
2017-11-28T21:22:36.833Z,1.90
2017-11-28T21:25:04.592Z,1.90
2017-11-28T21:27:32.415Z,1.90
2017-11-28T21:30:00.123Z,1.80
2017-11-28T21:32:27.812Z,1.90
2017-11-28T21:34:55.632Z,1.90
2017-11-28T21:37:23.355Z,1.80
2017-11-28T21:39:51.064Z,1.80
2017-11-28T21:42:18.876Z,1.80
2017-11-28T21:44:46.590Z,1.80
2017-11-28T21:47:14.293Z,1.90
2017-11-28T21:49:42.312Z,1.80
2017-11-28T21:52:10.009Z,1.70
2017-11-28T21:54:37.742Z,1.70
2017-11-28T21:57:05.584Z,1.80
2017-11-28T21:59:35.057Z,1.70
2017-11-28T22:02:03.759Z,1.60
2017-11-28T22:04:31.848Z,1.50
2017-11-28T22:07:00.289Z,1.50
2017-11-28T22:09:28.817Z,1.10
2017-11-28T22:11:56.764Z,1.00
2017-11-28T22:14:24.489Z,0.90
2017-11-28T22:16:52.200Z,0.70
2017-11-28T22:19:20.009Z,0.60
2017-11-28T22:21:47.732Z,0.50
2017-11-28T22:24:16.294Z,0.40
2017-11-28T22:26:44.008Z,0.40
2017-11-28T22:29:12.025Z,0.60
2017-11-28T22:31:39.708Z,0.80
2017-11-28T22:34:08.188Z,1.00
2017-11-28T22:36:36.775Z,1.20
2017-11-28T22:39:05.252Z,1.40
2017-11-28T22:41:33.733Z,1.50
2017-11-28T22:44:02.316Z,1.40
2017-11-28T22:46:30.804Z,1.30
2017-11-28T22:48:58.534Z,1.30
2017-11-28T22:51:27.092Z,1.10
2017-11-28T22:53:54.808Z,1.10
2017-11-28T22:56:22.612Z,1.20
2017-11-28T22:58:51.500Z,1.30
2017-11-28T23:01:19.337Z,1.20
2017-11-28T23:03:47.782Z,1.20
2017-11-28T23:06:15.734Z,1.20
2017-11-28T23:08:43.421Z,1.10
2017-11-28T23:11:11.213Z,1.30
2017-11-28T23:13:50.905Z,1.30
2017-11-28T23:16:19.724Z,1.10
2017-11-28T23:18:47.538Z,1.10
2017-11-28T23:21:15.284Z,1.20
2017-11-28T23:23:43.108Z,1.10
2017-11-28T23:26:10.820Z,1.20
2017-11-28T23:28:38.580Z,1.10
2017-11-28T23:31:06.376Z,1.20
2017-11-28T23:33:34.181Z,1.20
2017-11-28T23:36:02.760Z,1.20
2017-11-28T23:38:30.536Z,1.20
2017-11-28T23:40:58.248Z,1.20
2017-11-28T23:43:26.496Z,1.30
2017-11-28T23:45:54.669Z,1.40
2017-11-28T23:48:23.385Z,1.50
2017-11-28T23:50:51.091Z,1.50
2017-11-28T23:53:18.803Z,1.50
2017-11-28T23:55:46.716Z,1.50
2017-11-28T23:58:14.716Z,1.40
